SPCL/PCL METAR and TAF weather

Enter ICAO airport designator
Station Type Date Time Source
SPCL METAR 2019/12/05 23:00 UTC NOAA

SPCL 052300Z 05004KT 9999 SCT025 27/23 Q1009 RMK BIRD HAZARD RWY 02/20 PP000


Station Type Date Time Source
SPCL Decoded METAR 2019/12/05 23:00 UTC NOAA

Pucallpa, Peru (SPCL) 08-25S 074-36W 149M
Dec 05, 2019 - 06:00 PM EST / 2019.12.05 2300 UTC
Wind: from the NE (050 degrees) at 5 MPH (4 KT):0
Visibility: greater than 7 mile(s):0
Sky conditions: partly cloudy
Temperature: 80 F (27 C)
Dew Point: 73 F (23 C)
Relative Humidity: 78%
Pressure (altimeter): 29.80 in. Hg (1009 hPa)
ob: SPCL 052300Z 05004KT 9999 SCT025 27/23 Q1009 RMK BIRD HAZARD RWY 02/20 PP000
cycle: 23

Station Type Date Time Source
SPCL TAF 2019/12/05 18:33 UTC NOAA

TAF SPCL 051700Z 0518/0618 02005KT 9999 BKN015 BKN080 TX29/0519Z TN22/0611Z
TEMPO 0519/0523 4000 RADZ
TEMPO 0608/0612 7000 DZ BKN010 BKN080

Example: see airport list